Time;durP1;ratioP1;P1;durP2;ratioP2;P2;SDS_P1;SDS_P2;PMS_P1;PMS_P2;Temp;Humidity;BMP_temperature;BMP_pressure;BME280_temperature;BME280_humidity;BME280_pressure;Samples;Min_cycle;Max_cycle;Signal;HPM_P1;HPM_P2
2022/01/01 00:00:17;;;;;;;17.43;15.83;;;9.90;99.90;;;;;;5056607;28;20285;-89
2022/01/01 00:02:44;;;;;;;16.87;15.27;;;9.90;99.90;;;;;;5068562;28;20192;-89
2022/01/01 00:05:12;;;;;;;17.20;15.10;;;10.00;99.90;;;;;;5093419;28;20181;-89
2022/01/01 00:07:41;;;;;;;15.30;13.87;;;10.00;99.90;;;;;;5075344;28;20204;-88
2022/01/01 00:10:08;;;;;;;16.17;14.60;;;10.10;99.90;;;;;;5045735;28;20214;-88
2022/01/01 00:32:18;;;;;;;14.00;12.60;;;10.10;99.90;;;;;;5111060;23;20231;-88
2022/01/01 00:34:44;;;;;;;14.83;13.43;;;10.20;99.90;;;;;;5049009;28;20198;-89
2022/01/01 00:37:10;;;;;;;14.47;13.00;;;10.20;99.90;;;;;;5034116;28;20258;-88
2022/01/01 00:39:36;;;;;;;15.53;13.73;;;10.30;99.90;;;;;;5036053;28;20219;-89
2022/01/01 00:42:03;;;;;;;14.77;13.37;;;10.20;99.90;;;;;;5037311;28;20188;-89
2022/01/01 00:44:33;;;;;;;14.90;13.40;;;10.20;99.90;;;;;;5018188;28;20285;-89
2022/01/01 00:46:58;;;;;;;30.10;26.90;;;10.20;99.90;;;;;;5046842;28;20328;-89
2022/01/01 00:49:24;;;;;;;22.17;19.97;;;10.10;99.90;;;;;;5034471;28;20208;-88
2022/01/01 00:51:50;;;;;;;33.17;29.87;;;10.00;99.90;;;;;;5036737;28;20163;-88
2022/01/01 00:54:16;;;;;;;36.53;32.83;;;10.00;99.90;;;;;;5033038;28;20184;-91
2022/01/01 00:56:42;;;;;;;34.07;30.77;;;9.90;99.90;;;;;;5007698;28;20188;-88
2022/01/01 00:59:08;;;;;;;31.33;28.03;;;9.80;99.90;;;;;;5026182;28;20215;-89
2022/01/01 01:01:33;;;;;;;30.23;27.13;;;9.70;99.90;;;;;;5033111;28;20191;-89
2022/01/01 01:03:59;;;;;;;24.07;21.57;;;9.60;99.90;;;;;;5036429;28;20193;-89
2022/01/01 01:06:25;;;;;;;23.07;20.77;;;9.60;99.90;;;;;;5039314;28;20237;-87
2022/01/01 01:08:53;;;;;;;25.13;22.57;;;9.60;99.90;;;;;;5035880;28;20186;-89
2022/01/01 01:11:19;;;;;;;30.20;27.17;;;9.50;99.90;;;;;;5048750;28;20167;-90
2022/01/01 01:13:55;;;;;;;29.73;26.70;;;9.50;99.90;;;;;;5035429;28;20196;-89
2022/01/01 01:16:21;;;;;;;28.53;25.63;;;9.40;99.90;;;;;;5035988;28;20209;-88
2022/01/01 01:18:47;;;;;;;27.90;25.00;;;9.40;99.90;;;;;;5028115;28;20206;-89
2022/01/01 01:21:13;;;;;;;25.03;22.43;;;9.40;99.90;;;;;;5028272;28;20213;-89
2022/01/01 01:23:38;;;;;;;23.70;21.20;;;9.40;99.90;;;;;;5025885;28;20225;-88
2022/01/01 01:26:04;;;;;;;22.90;20.60;;;9.40;99.90;;;;;;5029558;28;20213;-88
2022/01/01 01:28:30;;;;;;;26.00;22.93;;;9.40;99.90;;;;;;5024232;28;20679;-88
2022/01/01 01:30:56;;;;;;;28.33;25.23;;;9.40;99.90;;;;;;5026179;28;20273;-88
2022/01/01 01:33:23;;;;;;;30.23;26.70;;;9.30;99.90;;;;;;5026178;28;20197;-88
2022/01/01 01:35:49;;;;;;;29.73;24.63;;;9.30;99.90;;;;;;5026290;28;20189;-88
2022/01/01 01:38:15;;;;;;;28.17;25.30;;;9.20;99.90;;;;;;5023337;28;20224;-88
2022/01/01 01:40:40;;;;;;;28.23;25.10;;;9.20;99.90;;;;;;5023836;28;20221;-88
2022/01/01 01:43:10;;;;;;;29.70;23.83;;;9.20;99.90;;;;;;5021197;28;20221;-88
2022/01/01 01:45:36;;;;;;;26.17;23.57;;;9.20;99.90;;;;;;5007963;28;20198;-88
2022/01/01 01:48:03;;;;;;;29.80;23.80;;;9.20;99.90;;;;;;5020324;28;20193;-89
2022/01/01 01:50:30;;;;;;;27.97;23.53;;;9.20;99.90;;;;;;5023743;28;20213;-88
2022/01/01 01:52:58;;;;;;;25.80;22.90;;;9.20;99.90;;;;;;5019154;28;20202;-88
2022/01/01 01:55:27;;;;;;;26.73;22.23;;;9.20;99.90;;;;;;5020053;28;20217;-88
2022/01/01 01:57:53;;;;;;;25.20;22.50;;;9.20;99.90;;;;;;5023239;28;20224;-87
2022/01/01 02:03:09;;;;;;;23.73;21.30;;;9.20;99.90;;;;;;5017737;28;20205;-88
2022/01/01 02:05:35;;;;;;;25.20;22.07;;;9.20;99.90;;;;;;5021298;28;20182;-87
2022/01/01 02:08:01;;;;;;;22.77;20.37;;;9.20;99.90;;;;;;5025035;28;20192;-88
2022/01/01 02:10:27;;;;;;;23.43;19.70;;;9.30;99.90;;;;;;5023867;28;20241;-89
2022/01/01 02:12:55;;;;;;;22.53;20.20;;;9.30;99.90;;;;;;5016852;28;20210;-89
2022/01/01 02:15:43;;;;;;;22.20;19.63;;;9.30;99.90;;;;;;5021010;28;20200;-89
2022/01/01 02:18:09;;;;;;;20.07;17.73;;;9.30;99.90;;;;;;5023501;28;20218;-89
2022/01/01 02:20:34;;;;;;;19.50;17.47;;;9.40;99.90;;;;;;5023596;28;20241;-89
2022/01/01 02:23:01;;;;;;;18.70;16.30;;;9.30;99.90;;;;;;5024035;28;20284;-88
2022/01/01 02:25:29;;;;;;;18.13;16.13;;;9.40;99.90;;;;;;5021400;28;20217;-89
2022/01/01 02:27:55;;;;;;;21.27;17.43;;;9.40;99.90;;;;;;5022179;28;20252;-88
2022/01/01 02:30:21;;;;;;;22.27;18.40;;;9.30;99.90;;;;;;5022081;28;20213;-89
2022/01/01 02:32:47;;;;;;;22.47;17.67;;;9.30;99.90;;;;;;5024465;28;20205;-88
2022/01/01 02:35:17;;;;;;;21.83;19.60;;;9.20;99.90;;;;;;5021396;28;20228;-89
2022/01/01 02:37:43;;;;;;;21.77;19.50;;;9.20;99.90;;;;;;5021639;28;20228;-88
2022/01/01 02:40:11;;;;;;;23.60;21.10;;;9.30;99.90;;;;;;5018400;28;20221;-88
2022/01/01 02:42:39;;;;;;;25.97;21.10;;;9.20;99.90;;;;;;5033192;28;20192;-88
2022/01/01 02:45:08;;;;;;;24.07;20.83;;;9.20;99.90;;;;;;5024803;28;20335;-88
2022/01/01 02:47:34;;;;;;;22.27;19.70;;;9.10;99.90;;;;;;5018148;28;20271;-88
2022/01/01 02:50:00;;;;;;;22.37;20.17;;;9.10;99.90;;;;;;5019194;28;20275;-88
2022/01/01 02:52:26;;;;;;;23.27;20.80;;;9.10;99.90;;;;;;5016127;28;20292;-89
2022/01/01 02:54:52;;;;;;;21.53;19.40;;;9.10;99.90;;;;;;5023438;28;20181;-88
2022/01/01 02:57:18;;;;;;;21.30;19.10;;;9.10;99.90;;;;;;5033224;28;20177;-88
2022/01/01 02:59:44;;;;;;;21.87;18.97;;;9.10;99.90;;;;;;5019640;28;20217;-88
2022/01/01 03:02:10;;;;;;;20.53;18.43;;;9.20;99.90;;;;;;5015666;28;20197;-88
2022/01/01 03:04:35;;;;;;;23.70;19.57;;;9.20;99.90;;;;;;5025998;28;20501;-86
2022/01/01 03:07:02;;;;;;;20.53;18.40;;;9.20;99.90;;;;;;5033646;28;20173;-87
2022/01/01 03:09:34;;;;;;;20.30;18.20;;;9.20;99.90;;;;;;5020688;28;20236;-88
2022/01/01 03:12:04;;;;;;;21.13;18.97;;;9.10;99.90;;;;;;5020693;28;20220;-88
2022/01/01 03:14:30;;;;;;;21.13;18.93;;;9.10;99.90;;;;;;5036319;28;20224;-88
2022/01/01 03:16:56;;;;;;;21.50;19.30;;;9.10;99.90;;;;;;5020084;28;20198;-87
2022/01/01 03:19:22;;;;;;;19.77;17.73;;;9.10;99.90;;;;;;5018716;28;20213;-89
2022/01/01 03:21:47;;;;;;;20.83;18.67;;;9.20;99.90;;;;;;5036507;28;20185;-88
2022/01/01 03:24:13;;;;;;;20.97;18.87;;;9.20;99.90;;;;;;5030446;28;20221;-89
2022/01/01 03:26:39;;;;;;;21.60;19.23;;;9.20;99.90;;;;;;5034145;28;20219;-88
2022/01/01 03:29:06;;;;;;;21.20;19.00;;;9.10;99.90;;;;;;5020599;28;20201;-88
2022/01/01 03:31:31;;;;;;;22.20;18.53;;;9.10;99.90;;;;;;5020879;28;20212;-88
2022/01/01 03:33:58;;;;;;;23.23;18.40;;;9.20;99.90;;;;;;5018986;28;20228;-88
2022/01/01 03:36:28;;;;;;;19.20;17.20;;;9.10;99.90;;;;;;5018460;28;20191;-88
2022/01/01 03:38:55;;;;;;;20.10;17.63;;;9.20;99.90;;;;;;5011485;28;20240;-89
2022/01/01 03:41:20;;;;;;;18.70;16.80;;;9.30;99.90;;;;;;5018709;28;20198;-89
2022/01/01 03:43:47;;;;;;;19.43;17.40;;;9.40;99.90;;;;;;5020481;28;20236;-89
2022/01/01 03:46:13;;;;;;;19.40;17.50;;;9.40;99.90;;;;;;5027864;28;20202;-89
2022/01/01 03:48:39;;;;;;;19.10;17.13;;;9.30;99.90;;;;;;5020666;28;20195;-88
2022/01/01 03:51:05;;;;;;;19.10;17.10;;;9.30;99.90;;;;;;5018634;28;20252;-88
2022/01/01 03:53:30;;;;;;;19.57;17.47;;;9.30;99.90;;;;;;5019150;28;20424;-88
2022/01/01 03:55:57;;;;;;;19.03;17.17;;;9.20;99.90;;;;;;5020470;28;20195;-89
2022/01/01 03:58:23;;;;;;;18.87;17.07;;;9.20;99.90;;;;;;5000590;28;20282;-88
2022/01/01 04:00:48;;;;;;;19.87;17.77;;;9.20;99.90;;;;;;5024428;28;20244;-88
2022/01/01 04:03:18;;;;;;;18.10;16.30;;;9.10;99.90;;;;;;5013055;28;20206;-88
2022/01/01 04:05:45;;;;;;;19.43;17.37;;;9.10;99.90;;;;;;5020400;28;20245;-89
2022/01/01 04:08:11;;;;;;;16.57;14.87;;;9.20;99.90;;;;;;5018638;28;20194;-88
2022/01/01 04:10:38;;;;;;;17.63;15.93;;;9.30;99.90;;;;;;5034579;28;20219;-88
2022/01/01 04:13:06;;;;;;;16.73;14.93;;;9.40;99.90;;;;;;5020350;28;20278;-89
2022/01/01 04:15:33;;;;;;;16.90;15.20;;;9.40;99.90;;;;;;5021048;28;20203;-88
2022/01/01 04:18:08;;;;;;;16.53;14.90;;;9.50;99.90;;;;;;5019833;28;20215;-88
2022/01/01 04:20:33;;;;;;;17.23;15.53;;;9.50;99.90;;;;;;5020502;28;20287;-89
2022/01/01 04:22:59;;;;;;;16.97;15.37;;;9.50;99.90;;;;;;5019763;28;20222;-89
2022/01/01 04:25:26;;;;;;;16.47;14.87;;;9.50;99.90;;;;;;5017012;28;20350;-89
2022/01/01 04:27:53;;;;;;;17.20;15.50;;;9.50;99.90;;;;;;5018599;28;20208;-89
2022/01/01 04:30:19;;;;;;;16.60;14.87;;;9.50;99.90;;;;;;5016840;28;20228;-89
2022/01/01 04:32:45;;;;;;;17.27;15.40;;;9.50;99.90;;;;;;5019864;28;20233;-89
2022/01/01 04:35:11;;;;;;;15.67;14.07;;;9.50;99.90;;;;;;5017419;28;20655;-89
2022/01/01 04:37:38;;;;;;;16.17;14.50;;;9.40;99.90;;;;;;5018508;28;20219;-88
2022/01/01 04:40:07;;;;;;;15.60;14.00;;;9.50;99.90;;;;;;5017791;28;20203;-89
2022/01/01 04:42:33;;;;;;;16.10;14.50;;;9.50;99.90;;;;;;5016025;28;20195;-89
2022/01/01 04:44:58;;;;;;;16.77;15.17;;;9.40;99.90;;;;;;5019404;28;20199;-89
2022/01/01 04:47:28;;;;;;;17.00;15.20;;;9.50;99.90;;;;;;5011468;28;20200;-89
2022/01/01 04:49:54;;;;;;;15.43;13.93;;;9.50;99.90;;;;;;5016208;28;20217;-88
2022/01/01 04:52:20;;;;;;;17.00;15.40;;;9.40;99.90;;;;;;5019825;28;20695;-89
2022/01/01 04:54:45;;;;;;;16.13;14.43;;;9.30;99.90;;;;;;5015372;28;20682;-89
2022/01/01 04:57:12;;;;;;;17.13;15.53;;;9.30;99.90;;;;;;5015559;28;20257;-89
2022/01/01 04:59:40;;;;;;;17.07;15.37;;;9.20;99.90;;;;;;5017663;28;20214;-89
2022/01/01 05:02:07;;;;;;;14.57;13.23;;;9.10;99.90;;;;;;5019110;28;20237;-88
2022/01/01 05:04:33;;;;;;;13.93;12.53;;;9.00;99.90;;;;;;5014277;28;20195;-88
2022/01/01 05:06:58;;;;;;;15.00;13.50;;;8.90;99.90;;;;;;5018754;28;20187;-89
2022/01/01 05:09:27;;;;;;;14.87;12.93;;;8.90;99.90;;;;;;5018611;28;20209;-88
2022/01/01 05:11:53;;;;;;;14.03;12.70;;;8.90;99.90;;;;;;5024400;28;20195;-88
2022/01/01 05:14:19;;;;;;;14.33;12.83;;;8.90;99.90;;;;;;5029706;28;20256;-88
2022/01/01 05:16:45;;;;;;;14.13;12.83;;;9.00;99.90;;;;;;5038938;28;20191;-88
2022/01/01 05:19:11;;;;;;;14.13;12.73;;;9.00;99.90;;;;;;5018920;28;20221;-88
2022/01/01 05:21:36;;;;;;;13.43;11.50;;;8.90;99.90;;;;;;5019301;28;20197;-88
2022/01/01 05:24:05;;;;;;;13.50;12.13;;;8.90;99.90;;;;;;5034499;28;20205;-89
2022/01/01 05:26:31;;;;;;;14.53;13.10;;;8.70;99.90;;;;;;5016547;28;20186;-87
2022/01/01 05:28:57;;;;;;;15.87;14.00;;;8.60;99.90;;;;;;5016652;28;20197;-89
2022/01/01 05:31:23;;;;;;;15.07;13.57;;;8.80;99.90;;;;;;5017675;28;20302;-88
2022/01/01 05:33:50;;;;;;;16.93;14.67;;;8.80;99.90;;;;;;5016283;28;20244;-88
2022/01/01 05:36:17;;;;;;;14.77;13.30;;;8.80;99.90;;;;;;5016230;28;20673;-88
2022/01/01 05:38:44;;;;;;;14.53;13.07;;;8.90;99.90;;;;;;5017339;28;20242;-88
2022/01/01 05:41:11;;;;;;;15.17;13.60;;;9.00;99.90;;;;;;5006915;28;20277;-88
2022/01/01 05:43:36;;;;;;;16.87;14.40;;;9.00;99.90;;;;;;5031153;28;20221;-89
2022/01/01 05:46:03;;;;;;;14.00;12.63;;;9.10;99.90;;;;;;5016815;28;20192;-88
2022/01/01 05:48:28;;;;;;;15.83;13.73;;;9.00;99.90;;;;;;5018776;28;20186;-89
2022/01/01 05:50:55;;;;;;;15.60;13.93;;;9.10;99.90;;;;;;5034953;28;20221;-88
2022/01/01 05:53:21;;;;;;;16.90;15.20;;;9.10;99.90;;;;;;5031968;28;20213;-89
2022/01/01 05:55:47;;;;;;;17.27;13.73;;;9.00;99.90;;;;;;5015504;28;20192;-88
2022/01/01 05:58:13;;;;;;;14.90;13.30;;;9.00;99.90;;;;;;5017316;28;20214;-89
2022/01/01 06:00:39;;;;;;;15.93;14.07;;;9.10;99.90;;;;;;5015497;28;20216;-88
2022/01/01 06:03:05;;;;;;;16.20;14.60;;;8.90;99.90;;;;;;5019927;28;20226;-88
2022/01/01 06:05:31;;;;;;;15.93;14.27;;;8.80;99.90;;;;;;5017514;28;20783;-89
2022/01/01 06:07:58;;;;;;;17.17;15.37;;;8.80;99.90;;;;;;5014356;28;20273;-88
2022/01/01 06:10:24;;;;;;;17.00;15.30;;;8.70;99.90;;;;;;5012439;28;20700;-89
2022/01/01 06:12:51;;;;;;;16.60;14.87;;;8.70;99.90;;;;;;5012213;28;20190;-89
2022/01/01 06:15:17;;;;;;;16.60;14.90;;;8.80;99.90;;;;;;5015750;28;20678;-89
2022/01/01 06:17:43;;;;;;;15.83;14.30;;;8.90;99.90;;;;;;5015780;28;20586;-88
2022/01/01 06:20:09;;;;;;;15.50;14.00;;;8.90;99.90;;;;;;5015639;28;20215;-88
2022/01/01 06:22:35;;;;;;;15.50;13.90;;;9.00;99.90;;;;;;5005071;28;20221;-88
2022/01/01 06:25:01;;;;;;;14.97;13.17;;;9.00;99.90;;;;;;5010675;28;20256;-88
2022/01/01 06:27:27;;;;;;;16.00;14.30;;;9.10;99.90;;;;;;5029792;28;20221;-88
2022/01/01 06:29:52;;;;;;;16.73;14.97;;;9.10;99.90;;;;;;4999226;28;20320;-88
2022/01/01 06:32:18;;;;;;;14.07;12.70;;;9.00;99.90;;;;;;5014925;28;20198;-88
2022/01/01 06:34:44;;;;;;;15.93;14.40;;;9.00;99.90;;;;;;4997827;28;20201;-88
2022/01/01 06:37:09;;;;;;;16.87;15.13;;;8.90;99.90;;;;;;5017495;28;20178;-87
2022/01/01 06:39:35;;;;;;;16.13;14.43;;;9.00;99.90;;;;;;5016475;28;20222;-89
2022/01/01 06:42:01;;;;;;;14.07;12.67;;;8.90;99.90;;;;;;5016634;28;20210;-89
2022/01/01 06:44:27;;;;;;;16.90;14.77;;;8.90;99.90;;;;;;5017724;28;20192;-88
2022/01/01 06:46:53;;;;;;;16.17;14.53;;;8.80;99.90;;;;;;5017707;28;20201;-88
2022/01/01 06:49:20;;;;;;;16.40;14.70;;;8.70;99.90;;;;;;5018215;28;20237;-88
2022/01/01 06:51:46;;;;;;;16.70;15.00;;;8.50;99.90;;;;;;5016994;28;20212;-89
2022/01/01 06:54:11;;;;;;;17.33;15.17;;;8.40;99.90;;;;;;5026747;28;20284;-88
2022/01/01 06:56:37;;;;;;;16.47;14.37;;;8.30;99.90;;;;;;5018131;28;20432;-88
2022/01/01 06:59:03;;;;;;;18.07;15.73;;;8.30;99.90;;;;;;5017807;28;20217;-87
2022/01/01 07:01:29;;;;;;;16.50;14.53;;;8.20;99.90;;;;;;5014216;28;20564;-88
2022/01/01 07:03:56;;;;;;;18.50;14.80;;;8.20;99.90;;;;;;5011381;28;20199;-88
2022/01/01 07:06:21;;;;;;;17.73;15.87;;;8.20;99.90;;;;;;5020395;28;20217;-89
2022/01/01 07:08:47;;;;;;;16.73;14.93;;;8.20;99.90;;;;;;5040024;28;20181;-89
2022/01/01 07:11:13;;;;;;;15.93;13.77;;;8.30;99.90;;;;;;4993474;28;20221;-88
2022/01/01 07:13:39;;;;;;;15.20;13.60;;;8.20;99.90;;;;;;5027328;28;20239;-90
2022/01/01 07:16:06;;;;;;;15.70;13.33;;;8.30;99.90;;;;;;5029324;28;20198;-88
2022/01/01 07:18:31;;;;;;;15.03;13.50;;;8.30;99.90;;;;;;5027930;28;20224;-88
2022/01/01 07:20:57;;;;;;;19.90;17.73;;;8.30;99.90;;;;;;5024293;28;20214;-88
2022/01/01 07:23:23;;;;;;;29.67;25.43;;;8.40;99.90;;;;;;5027229;28;20186;-89
2022/01/01 07:25:49;;;;;;;14.40;13.00;;;8.40;99.90;;;;;;5025881;28;20198;-89
2022/01/01 07:28:16;;;;;;;13.97;12.57;;;8.40;99.90;;;;;;5025579;28;20208;-89
2022/01/01 07:30:43;;;;;;;13.97;12.43;;;8.50;99.90;;;;;;5027622;28;20206;-88
2022/01/01 07:33:14;;;;;;;15.13;13.53;;;8.40;99.90;;;;;;5012530;28;20201;-88
2022/01/01 07:35:41;;;;;;;14.70;13.00;;;8.50;99.90;;;;;;5030268;28;20215;-88
2022/01/01 07:38:07;;;;;;;16.00;13.53;;;8.50;99.90;;;;;;5027919;28;20209;-89
2022/01/01 07:40:34;;;;;;;17.07;15.23;;;8.40;99.90;;;;;;5029395;28;20289;-88
2022/01/01 07:43:01;;;;;;;23.10;20.67;;;8.40;99.90;;;;;;5029520;28;20185;-88
2022/01/01 07:45:27;;;;;;;28.20;25.20;;;8.40;99.90;;;;;;5018244;28;20187;-88
2022/01/01 07:47:53;;;;;;;38.13;33.13;;;8.50;99.90;;;;;;4999724;28;20212;-88
2022/01/01 07:50:19;;;;;;;15.33;12.63;;;8.50;99.90;;;;;;5031289;28;20209;-88
2022/01/01 07:52:44;;;;;;;13.00;11.70;;;8.50;99.90;;;;;;5026164;28;20254;-88
2022/01/01 07:55:11;;;;;;;18.10;16.27;;;8.60;99.90;;;;;;5032420;28;20217;-89
2022/01/01 07:57:37;;;;;;;16.70;12.63;;;8.70;99.90;;;;;;5025971;28;20297;-88
2022/01/01 08:00:04;;;;;;;13.77;12.37;;;8.70;99.90;;;;;;5028291;28;20214;-89
2022/01/01 08:02:30;;;;;;;13.43;12.13;;;8.70;99.90;;;;;;5045509;28;20253;-88
2022/01/01 08:04:56;;;;;;;14.17;12.60;;;8.60;99.90;;;;;;5020879;28;20205;-88
2022/01/01 08:07:21;;;;;;;14.60;12.17;;;8.40;99.90;;;;;;5017840;28;20201;-89
2022/01/01 08:09:47;;;;;;;14.70;13.20;;;8.30;99.90;;;;;;5027030;28;20205;-88
2022/01/01 08:12:13;;;;;;;14.83;13.33;;;8.20;99.90;;;;;;5033496;28;20182;-88
2022/01/01 08:14:38;;;;;;;14.00;12.07;;;8.30;99.90;;;;;;5027350;28;20186;-88
2022/01/01 08:17:06;;;;;;;14.27;12.83;;;8.20;99.90;;;;;;5045168;28;20204;-89
2022/01/01 08:19:33;;;;;;;13.47;12.07;;;8.20;99.90;;;;;;5028066;28;20217;-88
2022/01/01 08:21:59;;;;;;;13.33;11.93;;;8.30;99.90;;;;;;5031757;28;20247;-89
2022/01/01 08:24:25;;;;;;;13.63;12.23;;;8.40;99.90;;;;;;5030390;28;20293;-88
2022/01/01 08:26:51;;;;;;;13.67;12.27;;;8.40;99.90;;;;;;5049370;28;20181;-88
2022/01/01 08:29:17;;;;;;;13.43;12.13;;;8.60;99.90;;;;;;5038585;28;20194;-88
2022/01/01 08:31:43;;;;;;;13.93;12.53;;;8.60;99.90;;;;;;5031071;28;20205;-89
2022/01/01 08:34:09;;;;;;;13.47;12.07;;;8.70;99.90;;;;;;5028436;28;20232;-88
2022/01/01 08:36:35;;;;;;;13.07;11.77;;;8.60;99.90;;;;;;5038698;28;20186;-88
2022/01/01 08:39:02;;;;;;;13.00;11.80;;;8.60;99.90;;;;;;5038863;28;20209;-88
2022/01/01 08:41:28;;;;;;;13.20;11.90;;;8.70;99.90;;;;;;5019882;28;20200;-89
2022/01/01 08:43:53;;;;;;;13.80;12.13;;;8.80;99.90;;;;;;5017503;28;20210;-88
2022/01/01 08:46:19;;;;;;;13.83;12.43;;;8.80;99.90;;;;;;5019268;28;20576;-87
2022/01/01 08:48:45;;;;;;;13.40;12.00;;;8.70;99.90;;;;;;5019043;28;20198;-87
2022/01/01 08:51:19;;;;;;;14.00;12.70;;;8.60;99.90;;;;;;5019141;28;20220;-88
2022/01/01 08:53:46;;;;;;;13.23;11.93;;;8.70;99.90;;;;;;5020478;28;20242;-88
2022/01/01 08:56:12;;;;;;;13.53;12.23;;;8.60;99.90;;;;;;5020943;28;20194;-88
2022/01/01 08:58:39;;;;;;;14.70;12.93;;;8.70;99.90;;;;;;5018241;28;20209;-88
2022/01/01 09:01:06;;;;;;;13.93;12.57;;;8.60;99.90;;;;;;5019048;28;20213;-87
2022/01/01 09:03:37;;;;;;;14.13;12.77;;;8.60;99.90;;;;;;5020184;28;20268;-87
2022/01/01 09:06:04;;;;;;;13.40;11.83;;;8.70;99.90;;;;;;5015760;28;20182;-88
2022/01/01 09:08:31;;;;;;;13.93;12.63;;;8.60;99.90;;;;;;5016008;28;20205;-88
2022/01/01 09:10:57;;;;;;;14.20;12.67;;;8.70;99.90;;;;;;5019129;28;20206;-88
2022/01/01 09:13:23;;;;;;;14.00;12.60;;;8.60;99.90;;;;;;5017637;28;20224;-87
2022/01/01 09:15:48;;;;;;;14.37;12.97;;;8.70;99.90;;;;;;5016670;28;20185;-88
2022/01/01 09:18:14;;;;;;;14.83;13.43;;;8.80;99.90;;;;;;5013877;28;20225;-87
2022/01/01 09:20:40;;;;;;;15.70;14.20;;;8.90;99.90;;;;;;5015179;28;20316;-87
2022/01/01 09:23:06;;;;;;;15.03;13.63;;;8.90;99.90;;;;;;5017591;28;20213;-88
2022/01/01 09:25:32;;;;;;;15.00;13.43;;;8.90;99.90;;;;;;5017786;28;20198;-88
2022/01/01 09:27:58;;;;;;;13.87;12.57;;;9.00;99.90;;;;;;5020530;28;20185;-88
2022/01/01 09:30:23;;;;;;;13.57;12.30;;;9.20;99.90;;;;;;5014948;28;20316;-88
2022/01/01 09:32:49;;;;;;;14.53;13.03;;;9.40;99.90;;;;;;5014864;28;20213;-87
2022/01/01 09:35:17;;;;;;;13.67;12.37;;;9.60;99.90;;;;;;5011768;28;20209;-87
2022/01/01 09:37:42;;;;;;;12.67;11.37;;;9.50;99.90;;;;;;5012951;28;20249;-88
2022/01/01 09:40:09;;;;;;;13.13;11.83;;;9.70;99.90;;;;;;5012337;28;20246;-87
2022/01/01 09:42:35;;;;;;;12.73;11.43;;;9.70;99.90;;;;;;5014143;28;20270;-87
2022/01/01 09:45:06;;;;;;;13.73;12.33;;;9.70;99.90;;;;;;5019627;28;20217;-87
2022/01/01 09:47:32;;;;;;;12.47;11.27;;;9.70;99.90;;;;;;5021089;28;20223;-89
2022/01/01 09:49:57;;;;;;;13.13;11.77;;;9.90;99.90;;;;;;5020910;28;20784;-89
2022/01/01 09:52:24;;;;;;;12.17;10.97;;;9.90;99.90;;;;;;5017845;28;20198;-88
2022/01/01 09:54:51;;;;;;;12.47;11.17;;;9.90;99.90;;;;;;5020834;28;20182;-89
2022/01/01 09:57:17;;;;;;;12.90;11.67;;;9.80;99.90;;;;;;5016138;28;20205;-89
2022/01/01 09:59:43;;;;;;;12.53;11.23;;;9.90;99.90;;;;;;5018299;28;20218;-88
2022/01/01 10:02:10;;;;;;;13.20;11.90;;;9.90;99.90;;;;;;5018591;28;20189;-88
2022/01/01 10:04:48;;;;;;;12.37;11.07;;;10.00;99.90;;;;;;5013487;28;20198;-87
2022/01/01 10:07:14;;;;;;;11.73;10.60;;;9.90;99.90;;;;;;5018662;28;20198;-87
2022/01/01 10:09:40;;;;;;;12.00;10.80;;;10.00;99.90;;;;;;5016471;28;20641;-86
2022/01/01 10:12:10;;;;;;;11.07;10.07;;;10.00;99.90;;;;;;5019584;28;20241;-86
2022/01/01 10:14:44;;;;;;;11.17;10.03;;;10.20;99.90;;;;;;5017548;28;20212;-86
2022/01/01 10:17:20;;;;;;;11.80;10.13;;;10.60;99.90;;;;;;5013322;28;20201;-86
2022/01/01 10:19:49;;;;;;;10.80;9.57;;;10.50;99.90;;;;;;5016907;28;20233;-86
2022/01/01 10:22:23;;;;;;;9.60;8.60;;;10.80;99.90;;;;;;5013502;28;20260;-86
2022/01/01 10:28:00;;;;;;;9.50;8.53;;;10.60;99.90;;;;;;5011308;28;20628;-86
2022/01/01 10:30:36;;;;;;;9.27;8.47;;;10.70;99.90;;;;;;5009043;28;20206;-86
2022/01/01 10:33:03;;;;;;;9.53;8.63;;;10.70;99.90;;;;;;5009268;28;20202;-86
2022/01/01 10:35:35;;;;;;;9.60;8.47;;;10.60;99.90;;;;;;5009679;28;20193;-86
2022/01/01 10:38:04;;;;;;;9.03;8.10;;;10.70;99.90;;;;;;5007324;28;20219;-86
2022/01/01 10:40:29;;;;;;;8.80;7.60;;;10.70;99.90;;;;;;5008782;28;20566;-86
2022/01/01 10:42:56;;;;;;;9.23;8.27;;;10.80;99.90;;;;;;5009675;28;20207;-86
2022/01/01 10:45:38;;;;;;;8.43;7.63;;;10.90;99.90;;;;;;5009664;28;20214;-86
2022/01/01 10:48:06;;;;;;;8.37;7.57;;;11.20;99.90;;;;;;5008924;28;20684;-86
2022/01/01 10:50:37;;;;;;;8.67;7.80;;;11.30;99.90;;;;;;5006671;28;20212;-86
2022/01/01 10:53:15;;;;;;;8.10;7.30;;;11.50;99.90;;;;;;5008132;28;20320;-87
2022/01/01 10:55:42;;;;;;;8.03;7.33;;;11.40;99.30;;;;;;5007192;28;20298;-86
2022/01/01 10:58:08;;;;;;;8.83;7.67;;;11.40;99.20;;;;;;5013836;28;20215;-86
2022/01/01 11:00:40;;;;;;;8.23;7.43;;;11.60;98.50;;;;;;5013919;28;20362;-86
2022/01/01 11:03:15;;;;;;;8.47;7.47;;;11.60;98.80;;;;;;5012337;28;20176;-86
2022/01/01 11:05:41;;;;;;;7.50;6.80;;;11.90;97.30;;;;;;5009020;28;20184;-86
2022/01/01 11:08:07;;;;;;;8.03;7.23;;;11.90;97.70;;;;;;5015870;28;20207;-86
2022/01/01 11:10:35;;;;;;;7.57;6.80;;;11.90;97.90;;;;;;5011008;28;20228;-86
2022/01/01 11:13:04;;;;;;;7.80;7.00;;;12.10;96.30;;;;;;5020223;28;20195;-87
2022/01/01 11:15:31;;;;;;;7.50;6.80;;;11.90;96.80;;;;;;5031055;28;20196;-86
2022/01/01 11:17:57;;;;;;;7.87;7.17;;;12.10;96.70;;;;;;5015906;28;20564;-86
2022/01/01 11:20:25;;;;;;;7.40;6.70;;;12.20;96.60;;;;;;5013684;28;20220;-86
2022/01/01 11:22:51;;;;;;;8.70;7.80;;;12.30;95.90;;;;;;5031332;28;20181;-86
2022/01/01 11:25:18;;;;;;;8.73;7.70;;;12.30;96.50;;;;;;5024818;28;20244;-86
2022/01/01 11:27:45;;;;;;;8.47;7.67;;;12.30;95.70;;;;;;5015484;28;20202;-87
2022/01/01 11:30:13;;;;;;;8.73;7.93;;;12.10;95.30;;;;;;5012513;28;20199;-87
2022/01/01 11:32:57;;;;;;;9.43;8.43;;;12.00;97.50;;;;;;5015227;28;20212;-87
2022/01/01 11:35:28;;;;;;;9.20;8.30;;;12.10;95.80;;;;;;5012088;28;20213;-88
2022/01/01 11:38:05;;;;;;;8.83;7.90;;;12.40;95.50;;;;;;5012272;28;20224;-88
2022/01/01 11:40:40;;;;;;;9.13;8.17;;;12.40;95.20;;;;;;5013227;28;20222;-88
2022/01/01 11:43:07;;;;;;;8.53;7.43;;;12.70;96.00;;;;;;5012451;28;20196;-88
2022/01/01 11:45:44;;;;;;;9.30;8.40;;;13.00;92.60;;;;;;5012428;28;20217;-88
2022/01/01 11:48:39;;;;;;;9.90;7.90;;;13.40;94.60;;;;;;5017022;28;20292;-88
2022/01/01 11:51:44;;;;;;;7.73;7.03;;;13.40;90.40;;;;;;5008797;28;20218;-88
2022/01/01 11:54:25;;;;;;;7.90;7.10;;;13.60;90.80;;;;;;5018449;28;20535;-87
2022/01/01 11:56:51;;;;;;;7.07;6.30;;;13.70;90.20;;;;;;5021493;28;20190;-87
2022/01/01 11:59:40;;;;;;;7.10;6.50;;;13.60;89.00;;;;;;5022156;28;20230;-87
2022/01/01 12:02:18;;;;;;;7.23;6.30;;;13.50;90.50;;;;;;5016657;28;20545;-87
2022/01/01 12:04:45;;;;;;;7.27;6.07;;;13.90;87.40;;;;;;5031182;28;20335;-87
2022/01/01 12:07:20;;;;;;;7.13;6.30;;;14.00;88.80;;;;;;5015892;28;20197;-87
2022/01/01 12:09:57;;;;;;;7.93;6.93;;;14.20;86.10;;;;;;5015881;28;20287;-88
2022/01/01 12:12:35;;;;;;;7.90;7.20;;;14.60;85.90;;;;;;5011019;28;20367;-87
2022/01/01 12:15:01;;;;;;;7.60;6.90;;;14.70;85.70;;;;;;5008362;28;20280;-87
2022/01/01 12:17:27;;;;;;;6.60;5.97;;;15.00;83.50;;;;;;5013768;28;20567;-87
2022/01/01 12:19:56;;;;;;;7.70;6.90;;;15.10;82.10;;;;;;5014908;28;20630;-87
2022/01/01 12:22:26;;;;;;;7.67;6.97;;;15.20;83.40;;;;;;5017947;28;20209;-88
2022/01/01 12:24:53;;;;;;;7.93;6.27;;;15.30;82.40;;;;;;5013428;28;20190;-88
2022/01/01 12:27:18;;;;;;;7.53;6.93;;;15.70;80.20;;;;;;5014570;28;20197;-88
2022/01/01 12:29:44;;;;;;;6.67;6.07;;;15.70;81.20;;;;;;5009010;28;20225;-88
2022/01/01 12:32:10;;;;;;;6.53;5.83;;;15.80;80.10;;;;;;5011415;28;20207;-88
2022/01/01 12:34:37;;;;;;;7.33;6.50;;;15.80;78.40;;;;;;5009626;28;20213;-87
2022/01/01 12:37:12;;;;;;;6.70;6.10;;;15.30;80.40;;;;;;5011237;28;20206;-88
2022/01/01 12:39:59;;;;;;;6.13;5.53;;;14.90;83.60;;;;;;5008503;28;20246;-88
2022/01/01 12:42:30;;;;;;;7.03;6.27;;;14.40;84.10;;;;;;5011302;28;20781;-88
2022/01/01 12:44:58;;;;;;;6.70;5.87;;;14.10;86.20;;;;;;5011675;28;20668;-88
2022/01/01 12:47:27;;;;;;;6.00;5.50;;;14.40;84.80;;;;;;5011883;28;20195;-88
2022/01/01 12:49:53;;;;;;;6.97;6.30;;;14.50;84.10;;;;;;5011063;28;20292;-87
2022/01/01 12:52:22;;;;;;;6.67;6.07;;;14.80;81.50;;;;;;5011927;28;20645;-87
2022/01/01 12:54:51;;;;;;;6.70;5.70;;;14.40;84.50;;;;;;5010642;28;20201;-88
2022/01/01 12:57:19;;;;;;;6.50;6.00;;;14.30;84.90;;;;;;5007644;28;20185;-88
2022/01/01 12:59:48;;;;;;;6.80;6.20;;;14.50;84.30;;;;;;5015280;28;20243;-87
2022/01/01 13:02:14;;;;;;;6.43;5.93;;;14.50;83.80;;;;;;5010785;28;20205;-86
2022/01/01 13:04:40;;;;;;;6.27;5.70;;;14.60;83.80;;;;;;5011001;28;20228;-87